createdAt,value
2023-02-25T00:00:35.153Z,33.25
2023-02-25T00:03:02.164Z,34.90
2023-02-25T00:05:31.820Z,41.60
2023-02-25T00:07:59.761Z,35.47
2023-02-25T00:10:26.815Z,35.03
2023-02-25T00:12:53.942Z,35.75
2023-02-25T00:15:20.718Z,34.25
2023-02-25T00:17:49.892Z,35.50
2023-02-25T00:20:18.510Z,41.45
2023-02-25T00:22:45.499Z,38.00
2023-02-25T00:25:13.878Z,41.55
2023-02-25T00:27:40.765Z,37.75
2023-02-25T00:30:10.895Z,35.10
2023-02-25T00:32:38.417Z,40.72
2023-02-25T00:35:05.820Z,36.35
2023-02-25T00:37:32.711Z,37.20
2023-02-25T00:39:59.457Z,29.80
2023-02-25T00:42:27.300Z,30.00
2023-02-25T00:44:54.084Z,29.70
2023-02-25T00:47:20.990Z,24.08
2023-02-25T00:49:48.759Z,29.77
2023-02-25T00:52:16.472Z,37.58
2023-02-25T00:54:43.464Z,32.92
2023-02-25T00:57:10.400Z,30.52
2023-02-25T00:59:37.294Z,35.55
2023-02-25T01:02:04.805Z,28.90
2023-02-25T01:04:32.129Z,35.42
2023-02-25T01:07:00.141Z,31.23
2023-02-25T01:09:27.504Z,29.00
2023-02-25T01:11:55.357Z,31.60
2023-02-25T01:14:25.090Z,48.65
2023-02-25T01:16:53.095Z,46.58
2023-02-25T01:19:25.448Z,44.95
2023-02-25T01:21:58.126Z,43.42
2023-02-25T01:24:30.268Z,49.05
2023-02-25T01:26:59.747Z,41.15
2023-02-25T01:29:29.647Z,36.05
2023-02-25T01:31:59.378Z,38.92
2023-02-25T01:34:26.908Z,35.35
2023-02-25T01:36:53.727Z,36.60
2023-02-25T01:39:22.818Z,32.25
2023-02-25T01:41:53.198Z,30.88
2023-02-25T01:44:21.848Z,29.88
2023-02-25T01:46:54.248Z,33.03
2023-02-25T01:49:30.132Z,32.65
2023-02-25T01:52:03.068Z,32.83
2023-02-25T01:54:31.258Z,28.25
2023-02-25T01:56:58.565Z,27.45
2023-02-25T01:59:28.981Z,25.02
2023-02-25T02:01:56.495Z,30.30
2023-02-25T02:04:26.161Z,30.05
2023-02-25T02:06:55.562Z,29.75
2023-02-25T02:09:25.820Z,29.73
2023-02-25T02:11:52.676Z,30.60
2023-02-25T02:14:29.788Z,31.98
2023-02-25T02:17:06.077Z,33.10
2023-02-25T02:19:41.908Z,32.25
2023-02-25T02:22:24.428Z,41.67
2023-02-25T02:25:16.069Z,40.03
2023-02-25T02:28:23.196Z,35.55
2023-02-25T02:31:25.359Z,35.97
2023-02-25T02:34:16.733Z,33.42
2023-02-25T02:36:56.695Z,38.20
2023-02-25T02:39:26.525Z,38.33
2023-02-25T02:41:58.520Z,37.13
2023-02-25T02:44:33.144Z,46.40
2023-02-25T02:47:18.917Z,41.22
2023-02-25T02:49:51.818Z,36.20
2023-02-25T02:52:27.244Z,36.47
2023-02-25T02:55:10.014Z,36.03
2023-02-25T02:57:41.535Z,35.10
2023-02-25T03:00:17.871Z,58.42
2023-02-25T03:02:57.620Z,50.25
2023-02-25T03:05:27.772Z,47.67
2023-02-25T03:08:21.508Z,42.22
2023-02-25T03:10:49.280Z,38.88
2023-02-25T03:13:16.761Z,39.70
2023-02-25T03:15:44.495Z,39.80
2023-02-25T03:18:23.352Z,39.30
2023-02-25T03:20:52.372Z,41.13
2023-02-25T03:23:23.900Z,45.38
2023-02-25T03:26:01.002Z,39.45
2023-02-25T03:28:33.063Z,47.75
2023-02-25T03:31:08.325Z,51.65
2023-02-25T03:33:48.600Z,48.92
2023-02-25T03:36:25.170Z,55.00
2023-02-25T03:38:57.901Z,60.08
2023-02-25T03:41:39.705Z,60.85
2023-02-25T03:44:11.593Z,69.03
2023-02-25T03:46:43.255Z,53.60
2023-02-25T03:49:21.293Z,53.03
2023-02-25T03:51:49.644Z,44.10
2023-02-25T03:54:16.800Z,81.05
2023-02-25T03:56:51.829Z,49.25
2023-02-25T03:59:20.695Z,39.55
2023-02-25T04:01:50.401Z,34.35
2023-02-25T04:04:17.402Z,33.53
2023-02-25T04:06:44.174Z,34.00
2023-02-25T04:09:11.147Z,38.22
2023-02-25T04:11:37.969Z,49.50
2023-02-25T04:14:04.922Z,36.40
2023-02-25T04:16:32.356Z,38.13
2023-02-25T04:19:00.017Z,37.63
2023-02-25T04:21:29.786Z,36.80
2023-02-25T04:23:57.103Z,32.33
2023-02-25T04:26:24.443Z,33.60
2023-02-25T04:28:51.631Z,38.67
2023-02-25T04:31:18.665Z,36.33
2023-02-25T04:33:49.948Z,31.35
2023-02-25T04:36:25.196Z,35.92
2023-02-25T04:38:52.409Z,35.50
2023-02-25T04:41:19.543Z,35.88
2023-02-25T04:43:46.421Z,41.80
2023-02-25T04:46:13.412Z,35.05
2023-02-25T04:48:40.641Z,35.95
2023-02-25T04:51:08.173Z,38.35
2023-02-25T04:53:35.519Z,40.53
2023-02-25T04:56:07.420Z,39.28
2023-02-25T04:58:36.066Z,39.45
2023-02-25T05:01:06.314Z,39.10
2023-02-25T05:03:33.999Z,40.78
2023-02-25T05:06:02.240Z,39.97
2023-02-25T05:08:29.546Z,46.70
2023-02-25T05:10:56.408Z,38.80
2023-02-25T05:13:23.793Z,41.55
2023-02-25T05:15:50.859Z,42.20
2023-02-25T05:18:17.764Z,38.03
2023-02-25T05:20:46.591Z,38.28
2023-02-25T05:23:14.460Z,52.38
2023-02-25T05:25:43.965Z,44.03
2023-02-25T05:28:11.571Z,59.25
2023-02-25T05:30:39.277Z,42.75
2023-02-25T05:33:07.069Z,45.53
2023-02-25T05:35:34.044Z,43.20
2023-02-25T05:38:01.336Z,40.50
2023-02-25T05:40:28.587Z,43.72
2023-02-25T05:42:55.327Z,50.58
2023-02-25T05:45:22.148Z,38.15
2023-02-25T05:47:48.981Z,38.63
2023-02-25T05:50:15.978Z,37.55
2023-02-25T05:52:42.890Z,39.00
2023-02-25T05:55:10.497Z,44.88
2023-02-25T05:57:37.706Z,39.70
2023-02-25T06:00:09.732Z,39.67
2023-02-25T06:02:39.580Z,42.88
2023-02-25T06:05:07.213Z,44.97
2023-02-25T06:07:34.219Z,49.25
2023-02-25T06:10:01.933Z,58.95
2023-02-25T06:12:30.524Z,70.93
2023-02-25T06:14:57.620Z,45.38
2023-02-25T06:17:27.069Z,43.97
2023-02-25T06:19:54.000Z,45.50
2023-02-25T06:22:22.285Z,55.70
2023-02-25T06:24:49.528Z,50.17
2023-02-25T06:27:17.092Z,49.45
2023-02-25T06:29:48.142Z,41.92
2023-02-25T06:32:16.621Z,39.33
2023-02-25T06:34:43.578Z,34.60
2023-02-25T06:37:10.813Z,33.38
2023-02-25T06:39:37.769Z,32.72
2023-02-25T06:42:04.780Z,38.15
2023-02-25T06:44:31.583Z,39.97
2023-02-25T06:46:58.783Z,37.38
2023-02-25T06:49:25.633Z,47.38
2023-02-25T06:51:52.894Z,74.72
2023-02-25T06:54:19.966Z,59.50
2023-02-25T06:56:47.014Z,51.53
2023-02-25T06:59:13.797Z,55.55
2023-02-25T07:01:42.014Z,60.47
2023-02-25T07:04:14.798Z,53.53
2023-02-25T07:06:41.971Z,52.65
2023-02-25T07:09:08.958Z,60.30
2023-02-25T07:11:36.649Z,60.58
2023-02-25T07:14:05.277Z,59.83
2023-02-25T07:16:34.362Z,68.15
2023-02-25T07:19:02.431Z,69.13
2023-02-25T07:21:31.117Z,68.90
2023-02-25T07:23:58.862Z,78.10
2023-02-25T07:26:28.510Z,74.45
2023-02-25T07:28:59.810Z,84.07
2023-02-25T07:31:28.767Z,102.10
2023-02-25T07:33:56.176Z,128.27
2023-02-25T07:36:23.786Z,141.23
2023-02-25T07:38:50.684Z,144.65
2023-02-25T07:41:19.141Z,122.03
2023-02-25T07:43:46.321Z,98.95
2023-02-25T07:46:13.688Z,104.07
2023-02-25T07:48:42.668Z,87.82
2023-02-25T07:51:18.835Z,96.15
2023-02-25T07:53:47.110Z,82.97
2023-02-25T07:56:15.330Z,74.75
2023-02-25T07:58:42.628Z,73.43
2023-02-25T08:01:10.600Z,44.40
2023-02-25T08:03:38.311Z,46.05
2023-02-25T08:06:08.729Z,49.25
2023-02-25T08:08:37.424Z,58.97
2023-02-25T08:11:09.021Z,54.30
2023-02-25T08:13:36.708Z,47.47
2023-02-25T08:16:08.297Z,37.75
2023-02-25T08:18:35.765Z,40.10
2023-02-25T08:21:03.165Z,34.83
2023-02-25T08:23:30.833Z,36.15
2023-02-25T08:26:00.446Z,36.42
2023-02-25T08:28:34.331Z,47.80
2023-02-25T08:31:02.520Z,41.70
2023-02-25T08:33:30.419Z,35.95
2023-02-25T08:36:09.680Z,40.58
2023-02-25T08:38:38.222Z,48.13
2023-02-25T08:41:06.613Z,40.75
2023-02-25T08:43:33.832Z,41.08
2023-02-25T08:46:01.478Z,44.03
2023-02-25T08:48:29.438Z,38.42
2023-02-25T08:50:56.304Z,41.75
2023-02-25T08:53:23.424Z,36.45
2023-02-25T08:55:53.828Z,35.58
2023-02-25T08:58:20.959Z,41.20
2023-02-25T09:00:50.138Z,30.23
2023-02-25T09:03:17.386Z,29.48
2023-02-25T09:05:50.564Z,33.30
2023-02-25T09:08:17.373Z,30.77
2023-02-25T09:10:50.186Z,34.03
2023-02-25T09:13:17.998Z,36.45
2023-02-25T09:15:44.906Z,37.95
2023-02-25T09:18:12.058Z,36.13
2023-02-25T09:20:39.177Z,41.45
2023-02-25T09:23:06.263Z,34.33
2023-02-25T09:25:32.996Z,42.63
2023-02-25T09:28:00.024Z,41.50
2023-02-25T09:30:26.933Z,35.70
2023-02-25T09:32:54.163Z,31.85
2023-02-25T09:35:21.112Z,32.92
2023-02-25T09:37:47.930Z,30.10
2023-02-25T09:40:22.798Z,33.33
2023-02-25T09:43:08.017Z,28.23
2023-02-25T09:45:36.633Z,34.10
2023-02-25T09:48:17.670Z,31.38
2023-02-25T09:50:52.254Z,27.30
2023-02-25T09:53:26.192Z,31.13
2023-02-25T09:55:53.232Z,29.13
2023-02-25T09:58:46.979Z,29.45
2023-02-25T10:01:30.112Z,35.53
2023-02-25T10:04:18.250Z,33.75
2023-02-25T10:06:50.523Z,34.70
2023-02-25T10:09:51.629Z,25.67
2023-02-25T10:12:24.416Z,30.08
2023-02-25T10:15:13.031Z,31.30
2023-02-25T10:18:04.425Z,34.92
2023-02-25T10:23:28.346Z,24.83
2023-02-25T10:26:07.495Z,26.77
2023-02-25T10:28:36.004Z,22.35
2023-02-25T10:31:09.486Z,25.92
2023-02-25T10:33:40.554Z,22.10
2023-02-25T10:36:15.033Z,17.85
2023-02-25T10:38:48.016Z,34.15
2023-02-25T10:41:15.300Z,22.70
2023-02-25T10:43:43.809Z,26.35
2023-02-25T10:46:18.938Z,21.63
2023-02-25T10:48:58.130Z,23.73
2023-02-25T10:51:27.561Z,24.08
2023-02-25T10:53:57.451Z,26.17
2023-02-25T10:56:27.463Z,27.90
2023-02-25T10:59:04.769Z,21.80
2023-02-25T11:01:39.602Z,37.53
2023-02-25T11:04:13.590Z,20.77
2023-02-25T11:06:42.869Z,28.05
2023-02-25T11:09:18.802Z,30.02
2023-02-25T11:11:57.951Z,25.88
2023-02-25T11:14:31.183Z,21.98
2023-02-25T11:17:13.113Z,23.95
2023-02-25T11:20:01.769Z,30.27
2023-02-25T11:22:37.973Z,18.42
2023-02-25T11:25:15.830Z,28.30
2023-02-25T11:27:45.525Z,22.02
2023-02-25T11:30:12.570Z,22.88
2023-02-25T11:32:54.491Z,23.13
2023-02-25T11:35:30.604Z,21.33
2023-02-25T11:37:59.700Z,27.50
2023-02-25T11:40:33.054Z,35.78
2023-02-25T11:43:17.185Z,30.98
2023-02-25T11:45:57.404Z,24.67
2023-02-25T11:48:45.475Z,34.47
2023-02-25T11:51:35.670Z,22.52
2023-02-25T11:54:38.185Z,21.92
2023-02-25T11:57:14.588Z,16.77
2023-02-25T12:00:11.662Z,34.60
2023-02-25T12:03:15.558Z,20.38
2023-02-25T12:06:07.670Z,29.35
2023-02-25T12:08:50.364Z,23.73
2023-02-25T12:11:58.466Z,26.15
2023-02-25T12:15:19.639Z,24.73
2023-02-25T12:17:58.507Z,23.53
2023-02-25T12:20:29.149Z,23.02
2023-02-25T12:23:15.003Z,18.55
2023-02-25T12:25:47.901Z,27.25
2023-02-25T12:28:32.907Z,27.85
2023-02-25T12:31:36.606Z,19.13
2023-02-25T12:34:25.002Z,28.58
2023-02-25T12:36:54.838Z,36.85
2023-02-25T12:40:03.420Z,21.80
2023-02-25T12:42:57.722Z,13.95
2023-02-25T12:45:30.926Z,28.17
2023-02-25T12:48:03.815Z,33.53
2023-02-25T12:50:42.949Z,19.15
2023-02-25T12:53:47.246Z,13.25
2023-02-25T12:56:35.766Z,26.42
2023-02-25T12:59:13.616Z,31.30
2023-02-25T13:02:02.192Z,37.53
2023-02-25T13:04:50.634Z,26.02
2023-02-25T13:07:48.378Z,31.52
2023-02-25T13:10:41.815Z,42.53
2023-02-25T13:13:46.282Z,42.95
2023-02-25T13:16:19.306Z,34.92
2023-02-25T13:18:55.115Z,32.03
2023-02-25T13:21:41.060Z,29.80
2023-02-25T13:25:05.174Z,31.33
2023-02-25T13:27:53.856Z,36.50
2023-02-25T13:30:32.749Z,36.00
2023-02-25T13:33:46.261Z,12.88
2023-02-25T13:36:32.850Z,24.58
2023-02-25T13:39:28.576Z,22.15
2023-02-25T13:42:04.502Z,26.65
2023-02-25T13:44:36.120Z,26.40
2023-02-25T13:47:37.229Z,39.28
2023-02-25T13:50:28.480Z,23.20
2023-02-25T13:53:34.957Z,21.38
2023-02-25T13:56:01.920Z,21.50
2023-02-25T13:59:02.747Z,20.77
2023-02-25T14:01:38.011Z,23.70
2023-02-25T14:04:09.013Z,23.10
2023-02-25T14:07:05.939Z,28.05
2023-02-25T14:09:46.287Z,27.63
2023-02-25T14:12:22.440Z,22.50
2023-02-25T14:15:23.679Z,32.67
2023-02-25T14:18:10.860Z,21.77
2023-02-25T14:20:46.843Z,29.73
2023-02-25T14:23:27.911Z,33.67
2023-02-25T14:26:09.931Z,31.17
2023-02-25T14:29:07.645Z,27.10
2023-02-25T14:31:49.720Z,26.60
2023-02-25T14:34:56.270Z,29.85
2023-02-25T14:37:29.417Z,38.78
2023-02-25T14:39:59.278Z,30.23
2023-02-25T14:42:49.558Z,39.53
2023-02-25T14:45:29.805Z,40.63
2023-02-25T14:48:10.804Z,26.70
2023-02-25T14:50:52.491Z,36.00
2023-02-25T14:53:41.443Z,38.55
2023-02-25T14:56:08.690Z,38.28
2023-02-25T14:59:03.703Z,30.10
2023-02-25T15:02:13.105Z,31.85
2023-02-25T15:05:23.952Z,24.92
2023-02-25T15:08:25.611Z,33.53
2023-02-25T15:11:31.159Z,31.08
2023-02-25T15:14:22.848Z,31.83
2023-02-25T15:17:21.602Z,27.73
2023-02-25T15:19:51.656Z,34.58
2023-02-25T15:22:21.129Z,36.13
2023-02-25T15:24:49.616Z,30.35
2023-02-25T15:27:36.189Z,29.63
2023-02-25T15:30:06.943Z,30.35
2023-02-25T15:33:02.008Z,25.98
2023-02-25T15:35:34.927Z,30.38
2023-02-25T15:38:14.714Z,20.60
2023-02-25T15:40:45.218Z,30.65
2023-02-25T15:43:15.376Z,21.50
2023-02-25T15:45:48.002Z,30.00
2023-02-25T15:48:21.246Z,35.80
2023-02-25T15:50:48.035Z,27.27
2023-02-25T15:53:21.307Z,35.92
2023-02-25T15:55:50.315Z,30.20
2023-02-25T15:58:43.165Z,27.10
2023-02-25T16:01:25.346Z,24.98
2023-02-25T16:03:53.028Z,32.13
2023-02-25T16:06:23.158Z,56.65
2023-02-25T16:09:06.946Z,55.92
2023-02-25T16:11:44.718Z,38.33
2023-02-25T16:14:28.851Z,35.40
2023-02-25T16:17:03.583Z,27.35
2023-02-25T16:19:35.955Z,26.38
2023-02-25T16:22:19.625Z,25.95
2023-02-25T16:24:50.145Z,34.90
2023-02-25T16:27:41.467Z,33.13
2023-02-25T16:30:17.536Z,62.63
2023-02-25T16:32:54.795Z,96.03
2023-02-25T16:35:25.485Z,79.88
2023-02-25T16:38:02.817Z,71.63
2023-02-25T16:40:35.584Z,84.97
2023-02-25T16:43:02.854Z,66.82
2023-02-25T16:45:34.134Z,181.23
2023-02-25T16:48:26.947Z,62.72
2023-02-25T16:50:54.932Z,34.30
2023-02-25T16:53:25.623Z,40.78
2023-02-25T16:55:59.060Z,44.72
2023-02-25T16:58:28.631Z,44.78
2023-02-25T17:01:01.934Z,41.33
2023-02-25T17:03:33.173Z,41.60
2023-02-25T17:06:00.277Z,39.10
2023-02-25T17:08:27.822Z,34.22
2023-02-25T17:10:56.803Z,39.45
2023-02-25T17:13:32.249Z,29.30
2023-02-25T17:16:00.841Z,30.33
2023-02-25T17:18:43.268Z,33.78
2023-02-25T17:21:22.708Z,41.42
2023-02-25T17:23:51.408Z,37.45
2023-02-25T17:26:19.521Z,28.23
2023-02-25T17:28:51.647Z,25.52
2023-02-25T17:31:26.898Z,34.80
2023-02-25T17:33:57.109Z,30.10
2023-02-25T17:36:28.793Z,25.05
2023-02-25T17:38:59.121Z,28.15
2023-02-25T17:41:26.880Z,32.92
2023-02-25T17:43:54.091Z,42.30
2023-02-25T17:46:36.324Z,59.83
2023-02-25T17:49:27.637Z,66.47
2023-02-25T17:51:57.675Z,51.03
2023-02-25T17:54:26.974Z,35.67
2023-02-25T17:57:19.959Z,35.65
2023-02-25T17:59:55.839Z,34.20
2023-02-25T18:02:51.449Z,26.10
2023-02-25T18:05:24.336Z,71.43
2023-02-25T18:08:09.373Z,57.10
2023-02-25T18:10:36.272Z,103.88
2023-02-25T18:13:05.082Z,66.43
2023-02-25T18:15:34.460Z,45.20
2023-02-25T18:18:04.481Z,25.55
2023-02-25T18:20:41.045Z,33.35
2023-02-25T18:23:21.009Z,46.88
2023-02-25T18:26:10.347Z,48.22
2023-02-25T18:28:38.483Z,37.88
2023-02-25T18:31:05.712Z,50.05
2023-02-25T18:33:32.850Z,53.45
2023-02-25T18:36:00.281Z,65.47
2023-02-25T18:38:31.486Z,96.95
2023-02-25T18:40:58.605Z,71.80
2023-02-25T18:43:30.930Z,125.18
2023-02-25T18:45:58.097Z,75.57
2023-02-25T18:48:24.954Z,58.42
2023-02-25T18:50:52.138Z,59.78
2023-02-25T18:53:24.087Z,62.05
2023-02-25T18:55:52.940Z,53.63
2023-02-25T18:58:21.403Z,70.15
2023-02-25T19:00:55.465Z,74.95
2023-02-25T19:03:28.870Z,86.57
2023-02-25T19:05:56.328Z,44.63
2023-02-25T19:08:23.527Z,53.50
2023-02-25T19:10:53.083Z,54.42
2023-02-25T19:13:28.916Z,55.80
2023-02-25T19:15:55.915Z,57.15
2023-02-25T19:18:23.168Z,64.70
2023-02-25T19:20:50.639Z,63.13
2023-02-25T19:23:18.712Z,73.90
2023-02-25T19:25:48.341Z,52.47
2023-02-25T19:28:15.159Z,48.97
2023-02-25T19:30:43.782Z,58.72
2023-02-25T19:33:12.522Z,49.67
2023-02-25T19:35:42.569Z,47.08
2023-02-25T19:38:17.117Z,52.40
2023-02-25T19:40:45.708Z,60.28
2023-02-25T19:43:12.833Z,66.60
2023-02-25T19:45:41.023Z,58.97
2023-02-25T19:48:08.741Z,72.05
2023-02-25T19:50:37.055Z,72.15
2023-02-25T19:53:05.657Z,50.90
2023-02-25T19:55:33.420Z,57.10
2023-02-25T19:58:00.519Z,56.15
2023-02-25T20:00:27.954Z,38.35
2023-02-25T20:02:56.279Z,49.05
2023-02-25T20:05:23.730Z,46.10
2023-02-25T20:07:51.330Z,52.63
2023-02-25T20:10:19.782Z,125.95
2023-02-25T20:12:48.066Z,81.63
2023-02-25T20:15:16.737Z,68.40
2023-02-25T20:17:45.745Z,71.72
2023-02-25T20:20:14.813Z,61.60
2023-02-25T20:22:42.322Z,75.13
2023-02-25T20:25:10.841Z,81.72
2023-02-25T20:27:39.906Z,76.45
2023-02-25T20:30:07.846Z,73.13
2023-02-25T20:32:34.915Z,58.33
2023-02-25T20:35:02.363Z,57.33
2023-02-25T20:37:33.113Z,76.43
2023-02-25T20:40:00.718Z,48.55
2023-02-25T20:42:30.213Z,39.88
2023-02-25T20:44:58.285Z,55.35
2023-02-25T20:47:35.029Z,48.70
2023-02-25T20:50:02.839Z,42.50
2023-02-25T20:52:29.964Z,36.78
2023-02-25T20:54:58.185Z,36.15
2023-02-25T20:57:26.826Z,39.70
2023-02-25T20:59:54.526Z,45.38
2023-02-25T21:02:22.031Z,45.80
2023-02-25T21:04:49.263Z,41.13
2023-02-25T21:07:16.438Z,51.50
2023-02-25T21:09:43.289Z,47.95
2023-02-25T21:12:10.266Z,47.88
2023-02-25T21:14:37.295Z,60.25
2023-02-25T21:17:09.401Z,59.50
2023-02-25T21:19:38.684Z,59.50
2023-02-25T21:22:06.877Z,53.65
2023-02-25T21:24:34.684Z,56.38
2023-02-25T21:27:01.840Z,108.35
2023-02-25T21:29:28.953Z,197.68
2023-02-25T21:31:55.795Z,95.45
2023-02-25T21:34:22.881Z,148.23
2023-02-25T21:36:49.727Z,148.45
2023-02-25T21:39:16.839Z,90.00
2023-02-25T21:41:45.137Z,89.93
2023-02-25T21:44:12.849Z,88.28
2023-02-25T21:46:40.965Z,61.25
2023-02-25T21:49:10.455Z,53.40
2023-02-25T21:51:37.560Z,49.42
2023-02-25T21:54:04.430Z,45.13
2023-02-25T21:56:31.821Z,38.72
2023-02-25T21:59:00.836Z,44.30
2023-02-25T22:01:30.518Z,49.65
2023-02-25T22:03:58.462Z,114.65
2023-02-25T22:06:26.297Z,74.45
2023-02-25T22:08:54.412Z,63.35
2023-02-25T22:11:24.959Z,50.60
2023-02-25T22:13:52.792Z,83.53
2023-02-25T22:16:21.090Z,115.82
2023-02-25T22:18:48.175Z,99.38
2023-02-25T22:21:36.091Z,92.88
2023-02-25T22:24:04.697Z,71.38
2023-02-25T22:26:33.533Z,69.28
2023-02-25T22:29:04.823Z,71.10
2023-02-25T22:31:32.899Z,74.55
2023-02-25T22:34:00.118Z,71.63
2023-02-25T22:36:27.690Z,68.43
2023-02-25T22:38:55.887Z,59.63
2023-02-25T22:41:25.613Z,66.38
2023-02-25T22:43:52.773Z,60.22
2023-02-25T22:46:29.476Z,65.18
2023-02-25T22:48:56.808Z,62.45
2023-02-25T22:51:35.962Z,42.67
2023-02-25T22:54:04.196Z,47.53
2023-02-25T22:56:30.984Z,51.85
2023-02-25T22:58:57.965Z,48.13
2023-02-25T23:01:25.917Z,53.47
2023-02-25T23:03:54.300Z,49.15
2023-02-25T23:06:34.265Z,49.33
2023-02-25T23:09:09.384Z,49.80
2023-02-25T23:11:36.230Z,50.40
2023-02-25T23:14:04.215Z,49.40
2023-02-25T23:16:37.116Z,45.55
2023-02-25T23:19:05.204Z,53.47
2023-02-25T23:21:33.393Z,53.92
2023-02-25T23:24:01.964Z,51.58
2023-02-25T23:26:36.677Z,55.63
2023-02-25T23:29:06.726Z,43.88
2023-02-25T23:31:38.953Z,54.28
2023-02-25T23:34:11.715Z,48.05
2023-02-25T23:36:40.195Z,58.47
2023-02-25T23:39:08.400Z,53.20
2023-02-25T23:41:36.424Z,62.05
2023-02-25T23:44:04.552Z,54.40
2023-02-25T23:46:32.703Z,53.53
2023-02-25T23:49:02.191Z,44.25
2023-02-25T23:51:29.337Z,35.35
2023-02-25T23:53:58.887Z,32.58
2023-02-25T23:56:29.661Z,25.17
2023-02-25T23:58:57.025Z,24.23
